Time;durP1;ratioP1;P1;durP2;ratioP2;P2;SDS_P1;SDS_P2;PMS_P1;PMS_P2;Temp;Humidity;BMP_temperature;BMP_pressure;BME280_temperature;BME280_humidity;BME280_pressure;Samples;Min_cycle;Max_cycle;Signal;HPM_P1;HPM_P2
2022/04/13 00:02:45;;;;;;;143.20;64.00;;;;;;;0.42;54.31;100856.07;128384;1287;99501;-76
2022/04/13 00:05:48;;;;;;;141.40;65.50;;;;;;;0.40;54.43;100858.45;128497;1287;99374;-78
2022/04/13 00:08:51;;;;;;;135.90;62.70;;;;;;;0.35;54.67;100859.20;128377;1287;99340;-75
2022/04/13 00:11:54;;;;;;;145.40;66.60;;;;;;;0.34;54.71;100858.05;128278;1287;99461;-76
2022/04/13 00:14:57;;;;;;;136.80;64.10;;;;;;;0.30;54.59;100853.31;128317;1287;100547;-78
2022/04/13 00:18:04;;;;;;;136.30;63.50;;;;;;;0.27;54.76;100851.73;128345;1287;99339;-75
2022/04/13 00:21:06;;;;;;;137.40;61.90;;;;;;;0.26;54.97;100848.25;128452;1287;107635;-75
2022/04/13 00:24:11;;;;;;;139.70;62.30;;;;;;;0.28;54.98;100850.64;128172;1287;200246;-77
2022/04/13 00:27:14;;;;;;;135.20;60.10;;;;;;;0.27;54.93;100855.41;128288;1287;108787;-77
2022/04/13 00:30:17;;;;;;;123.40;56.30;;;;;;;0.25;55.09;100859.20;128310;1287;100546;-75
2022/04/13 00:33:19;;;;;;;118.80;53.40;;;;;;;0.22;55.04;100861.60;128308;1287;99983;-76
2022/04/13 00:36:22;;;;;;;115.50;54.40;;;;;;;0.20;55.33;100861.52;128353;1287;99439;-76
2022/04/13 00:39:25;;;;;;;119.30;56.80;;;;;;;0.21;55.23;100862.33;128240;1287;99488;-75
2022/04/13 00:42:29;;;;;;;119.90;55.00;;;;;;;0.24;55.42;100863.75;128345;1287;100430;-76
2022/04/13 00:45:31;;;;;;;123.70;55.10;;;;;;;0.23;55.22;100868.01;128427;1287;99928;-77
2022/04/13 00:48:37;;;;;;;121.40;54.70;;;;;;;0.19;55.31;100869.42;128409;1287;99435;-75
2022/04/13 00:51:40;;;;;;;110.40;50.90;;;;;;;0.16;55.51;100871.45;128381;1287;108777;-80
2022/04/13 00:54:46;;;;;;;105.70;49.20;;;;;;;0.15;55.57;100869.59;128387;1287;100070;-79
2022/04/13 00:57:51;;;;;;;113.00;48.00;;;;;;;0.13;55.37;100875.63;128465;1287;109028;-79
2022/04/13 01:00:54;;;;;;;99.00;45.40;;;;;;;0.10;55.61;100874.04;128399;1287;109823;-77
2022/04/13 01:04:00;;;;;;;95.60;44.30;;;;;;;-0.02;55.26;100887.38;128335;1287;108727;-77
2022/04/13 01:07:07;;;;;;;85.30;39.80;;;;;;;-0.05;55.55;100888.35;128232;1287;108630;-77
2022/04/13 01:10:10;;;;;;;89.00;39.90;;;;;;;-0.04;55.83;100886.58;128257;1287;108805;-78
2022/04/13 01:13:13;;;;;;;85.60;38.40;;;;;;;-0.04;55.90;100885.84;128426;1287;108780;-77
2022/04/13 01:16:17;;;;;;;89.40;39.40;;;;;;;-0.02;55.93;100883.67;128389;1287;108601;-77
2022/04/13 01:19:20;;;;;;;93.10;40.50;;;;;;;-0.02;56.10;100884.89;128244;1287;108717;-78
2022/04/13 01:22:23;;;;;;;88.90;40.90;;;;;;;-0.00;55.98;100885.52;128420;1287;99922;-78
2022/04/13 01:25:26;;;;;;;81.50;37.60;;;;;;;0.01;55.97;100884.25;128348;1288;108646;-78
2022/04/13 01:28:28;;;;;;;80.90;35.20;;;;;;;-0.02;56.17;100891.89;128500;1287;100459;-81
2022/04/13 01:31:32;;;;;;;72.70;34.30;;;;;;;-0.03;56.01;100888.60;128591;1287;99774;-79
2022/04/13 01:34:34;;;;;;;83.10;34.60;;;;;;;-0.04;56.24;100889.55;128691;1288;99417;-75
2022/04/13 01:37:37;;;;;;;74.50;33.10;;;;;;;-0.05;56.17;100886.09;128311;1287;99373;-75
2022/04/13 01:40:42;;;;;;;74.00;32.90;;;;;;;-0.07;56.28;100887.94;128341;1287;100566;-79
2022/04/13 01:43:47;;;;;;;70.60;30.70;;;;;;;-0.09;56.27;100885.94;128366;1287;108999;-77
2022/04/13 01:46:49;;;;;;;70.00;31.30;;;;;;;-0.10;56.51;100881.94;128350;1287;99836;-78
2022/04/13 01:49:52;;;;;;;68.90;30.50;;;;;;;-0.10;56.39;100882.79;128429;1287;99741;-81
2022/04/13 01:52:55;;;;;;;62.60;29.60;;;;;;;-0.11;56.48;100880.07;128349;1287;99501;-76
2022/04/13 01:55:58;;;;;;;62.80;29.10;;;;;;;-0.13;56.36;100882.79;128224;1287;99356;-76
2022/04/13 01:59:01;;;;;;;59.90;28.40;;;;;;;-0.18;56.32;100890.02;128439;1287;99966;-78
2022/04/13 02:02:05;;;;;;;61.30;29.50;;;;;;;-0.26;56.48;100893.14;128499;1287;99342;-75
2022/04/13 02:05:10;;;;;;;72.20;29.40;;;;;;;-0.27;56.57;100897.05;128490;1287;108718;-73
2022/04/13 02:08:12;;;;;;;64.50;30.20;;;;;;;-0.27;56.73;100897.04;128519;1287;108769;-78
2022/04/13 02:11:15;;;;;;;62.10;29.70;;;;;;;-0.28;56.89;100888.52;128360;1287;99425;-78
2022/04/13 02:14:18;;;;;;;59.20;28.40;;;;;;;-0.27;56.83;100882.52;128431;1287;99779;-77
2022/04/13 02:17:21;;;;;;;61.90;27.60;;;;;;;-0.25;56.96;100881.38;128364;1287;99367;-77
2022/04/13 02:20:23;;;;;;;61.70;27.90;;;;;;;-0.26;56.95;100880.55;128283;1287;99394;-76
2022/04/13 02:23:26;;;;;;;61.40;28.60;;;;;;;-0.26;56.95;100877.95;128241;1287;100560;-80
2022/04/13 02:26:29;;;;;;;60.50;28.50;;;;;;;-0.29;57.00;100882.60;128356;1287;100516;-79
2022/04/13 02:29:31;;;;;;;64.80;29.20;;;;;;;-0.32;57.00;100883.96;128448;1287;99391;-77
2022/04/13 02:32:39;;;;;;;58.90;28.30;;;;;;;-0.37;56.94;100888.21;128288;1287;99434;-80
2022/04/13 02:35:41;;;;;;;59.00;25.90;;;;;;;-0.40;57.10;100891.86;128304;1287;108730;-80
2022/04/13 02:38:44;;;;;;;53.30;25.10;;;;;;;-0.42;57.05;100891.91;128248;1287;99842;-77
2022/04/13 02:41:47;;;;;;;53.60;25.40;;;;;;;-0.50;56.98;100897.16;128237;1287;100527;-78
2022/04/13 02:44:49;;;;;;;54.40;24.80;;;;;;;-0.51;57.09;100902.48;128252;1287;99376;-77
2022/04/13 02:47:52;;;;;;;47.50;23.20;;;;;;;-0.55;56.98;100909.64;128283;1287;99823;-77
2022/04/13 02:50:56;;;;;;;45.20;22.90;;;;;;;-0.58;57.30;100902.05;128331;1286;99330;-78
2022/04/13 02:53:59;;;;;;;45.40;22.60;;;;;;;-0.57;57.25;100894.48;128295;1287;101126;-77
2022/04/13 02:57:01;;;;;;;47.60;23.20;;;;;;;-0.59;57.29;100893.88;128323;1287;99813;-81
2022/04/13 03:00:07;;;;;;;45.70;22.30;;;;;;;-0.65;57.47;100896.08;128482;1287;100533;-80
2022/04/13 03:03:09;;;;;;;47.40;22.60;;;;;;;-0.69;57.64;100899.04;128355;1287;108741;-81
2022/04/13 03:06:12;;;;;;;42.80;22.70;;;;;;;-0.68;57.66;100898.48;128442;1288;99381;-86
2022/04/13 03:09:15;;;;;;;40.30;21.40;;;;;;;-0.70;57.70;100899.43;128477;1287;99454;-83
2022/04/13 03:12:18;;;;;;;45.00;22.30;;;;;;;-0.72;57.67;100899.88;128427;1287;99471;-78
2022/04/13 03:15:22;;;;;;;45.20;21.40;;;;;;;-0.74;57.78;100901.20;128279;1287;100600;-80
2022/04/13 03:18:25;;;;;;;43.00;21.10;;;;;;;-0.77;57.63;100908.29;128341;1288;108614;-76
2022/04/13 03:21:28;;;;;;;41.30;21.40;;;;;;;-0.78;57.55;100902.04;128286;1287;100534;-77
2022/04/13 03:24:30;;;;;;;42.60;21.20;;;;;;;-0.80;57.55;100903.37;128387;1288;99461;-75
2022/04/13 03:27:33;;;;;;;41.40;20.60;;;;;;;-0.81;57.57;100907.23;128322;1287;99480;-75
2022/04/13 03:30:36;;;;;;;41.60;21.50;;;;;;;-0.83;57.58;100907.83;128414;1287;99394;-75
2022/04/13 03:33:38;;;;;;;42.80;21.40;;;;;;;-0.80;57.73;100903.88;128463;1287;100424;-76
2022/04/13 03:36:41;;;;;;;40.60;20.70;;;;;;;-0.81;57.75;100904.25;128463;1287;99387;-74
2022/04/13 03:39:44;;;;;;;42.60;20.70;;;;;;;-0.84;57.84;100906.14;128281;1288;100427;-75
2022/04/13 03:42:46;;;;;;;42.00;21.20;;;;;;;-0.87;57.87;100916.20;128252;1288;99534;-74
2022/04/13 03:45:49;;;;;;;43.00;21.60;;;;;;;-0.83;58.14;100915.53;127694;1290;100653;-76
2022/04/13 03:48:52;;;;;;;40.00;20.80;;;;;;;-0.83;58.04;100914.80;127986;1289;99453;-74
2022/04/13 03:51:54;;;;;;;44.10;21.80;;;;;;;-0.83;58.31;100915.15;128180;1288;99468;-74
2022/04/13 03:54:57;;;;;;;41.60;21.70;;;;;;;-0.82;57.94;100918.08;128334;1288;99919;-74
2022/04/13 03:58:00;;;;;;;42.40;21.20;;;;;;;-0.82;58.23;100922.08;127996;1290;99479;-77
2022/04/13 04:01:02;;;;;;;46.40;23.00;;;;;;;-0.79;58.15;100930.03;128139;1288;99451;-76
2022/04/13 04:04:05;;;;;;;45.60;23.00;;;;;;;-0.77;58.18;100928.91;128325;1289;99956;-76
2022/04/13 04:07:09;;;;;;;44.40;21.90;;;;;;;-0.76;58.15;100927.30;128176;1289;99395;-75
2022/04/13 04:10:11;;;;;;;44.10;22.60;;;;;;;-0.75;58.26;100930.38;128166;1288;99429;-76
2022/04/13 04:13:14;;;;;;;40.40;21.70;;;;;;;-0.71;58.22;100933.90;128087;1288;100541;-76
2022/04/13 04:16:17;;;;;;;40.80;21.20;;;;;;;-0.64;58.78;100930.44;128058;1290;99465;-75
2022/04/13 04:19:19;;;;;;;40.90;21.60;;;;;;;-0.55;58.32;100934.28;128170;1288;99457;-75
2022/04/13 04:22:24;;;;;;;40.60;21.00;;;;;;;-0.49;58.36;100929.64;128172;1289;100652;-76
2022/04/13 04:25:26;;;;;;;44.30;23.30;;;;;;;-0.40;58.59;100926.62;128066;1288;99369;-76
2022/04/13 04:28:29;;;;;;;40.00;22.00;;;;;;;-0.30;58.70;100925.48;128219;1290;99449;-77
2022/04/13 04:31:50;;;;;;;50.30;24.20;;;;;;;-0.18;58.64;100922.72;128352;1290;99440;-77
2022/04/13 04:34:53;;;;;;;44.90;24.40;;;;;;;0.01;58.68;100924.63;128020;1289;100221;-76
2022/04/13 04:37:56;;;;;;;45.60;24.50;;;;;;;0.23;58.87;100931.17;128227;1290;99351;-76
2022/04/13 04:40:59;;;;;;;46.10;21.70;;;;;;;0.51;58.98;100933.58;128114;1288;100566;-75
2022/04/13 04:44:02;;;;;;;46.90;23.70;;;;;;;0.83;58.68;100936.78;128234;1290;99337;-76
2022/04/13 04:47:06;;;;;;;53.30;27.10;;;;;;;1.11;58.71;100930.34;128201;1289;100543;-76
2022/04/13 04:50:10;;;;;;;49.70;25.50;;;;;;;1.37;58.60;100925.73;128061;1290;99391;-77
2022/04/13 04:53:13;;;;;;;49.10;24.80;;;;;;;1.59;58.65;100925.13;128083;1290;99390;-75
2022/04/13 04:56:16;;;;;;;46.60;25.70;;;;;;;1.79;58.58;100921.80;128040;1290;99760;-76
2022/04/13 04:59:18;;;;;;;53.00;27.10;;;;;;;1.97;58.56;100924.16;128207;1289;100462;-75
2022/04/13 05:02:21;;;;;;;48.60;26.00;;;;;;;2.17;58.55;100929.63;128263;1288;99389;-76
2022/04/13 05:05:24;;;;;;;54.80;27.00;;;;;;;2.35;58.71;100929.16;128309;1290;99407;-77
2022/04/13 05:08:26;;;;;;;51.40;27.50;;;;;;;2.53;58.71;100930.62;128327;1288;99459;-77
2022/04/13 05:11:29;;;;;;;53.00;27.80;;;;;;;2.69;58.92;100931.33;128248;1288;99372;-77
2022/04/13 05:14:32;;;;;;;50.40;27.60;;;;;;;2.85;58.78;100933.44;128044;1290;99989;-76
2022/04/13 05:17:35;;;;;;;48.30;27.70;;;;;;;2.99;58.91;100933.48;128075;1288;99430;-76
2022/04/13 05:20:38;;;;;;;48.10;28.40;;;;;;;3.16;59.06;100934.48;128073;1288;99398;-77
2022/04/13 05:23:42;;;;;;;46.60;28.00;;;;;;;3.29;58.93;100930.04;127976;1288;100566;-77
2022/04/13 05:26:45;;;;;;;48.80;28.70;;;;;;;3.36;58.95;100938.04;128199;1288;99694;-77
2022/04/13 05:29:47;;;;;;;51.60;30.80;;;;;;;3.41;59.02;100933.73;128163;1289;99435;-77
2022/04/13 05:32:53;;;;;;;55.60;32.30;;;;;;;3.49;59.08;100931.66;128075;1290;99350;-76
2022/04/13 05:35:55;;;;;;;57.90;35.30;;;;;;;3.58;59.26;100934.65;128245;1288;99442;-76
2022/04/13 05:38:58;;;;;;;54.70;32.30;;;;;;;3.66;59.36;100935.09;128245;1288;99363;-79
2022/04/13 05:42:00;;;;;;;54.60;33.20;;;;;;;3.75;59.42;100938.40;128325;1288;99429;-76
2022/04/13 05:45:05;;;;;;;64.40;36.70;;;;;;;3.86;59.23;100940.71;128331;1288;100529;-76
2022/04/13 05:48:08;;;;;;;55.80;33.10;;;;;;;3.98;59.16;100942.48;128334;1288;99367;-76
2022/04/13 05:51:11;;;;;;;54.70;32.30;;;;;;;4.08;58.96;100946.45;128300;1288;100580;-77
2022/04/13 05:54:14;;;;;;;47.80;28.60;;;;;;;4.20;59.22;100945.17;128344;1288;100496;-75
2022/04/13 05:57:16;;;;;;;53.00;31.70;;;;;;;4.32;59.19;100953.20;128362;1288;99520;-77
2022/04/13 06:00:20;;;;;;;53.70;32.90;;;;;;;4.44;59.03;100957.91;128309;1288;100592;-76
2022/04/13 06:03:23;;;;;;;48.80;30.40;;;;;;;4.56;59.19;100964.92;128100;1288;99480;-76
2022/04/13 06:06:28;;;;;;;45.00;28.70;;;;;;;4.67;58.98;100965.27;128062;1288;99370;-77
2022/04/13 06:09:31;;;;;;;40.60;26.40;;;;;;;4.78;58.96;100964.23;128129;1288;100545;-76
2022/04/13 06:12:33;;;;;;;42.50;24.70;;;;;;;4.89;58.77;100969.19;128259;1288;102819;-77
2022/04/13 06:15:36;;;;;;;41.50;26.00;;;;;;;5.00;58.85;100976.42;128271;1288;99383;-75
2022/04/13 06:18:39;;;;;;;47.00;29.80;;;;;;;5.10;58.88;100980.88;128040;1288;99415;-76
2022/04/13 06:21:42;;;;;;;43.40;27.30;;;;;;;5.22;58.81;100984.36;127966;1288;99392;-77
2022/04/13 06:24:44;;;;;;;34.50;22.70;;;;;;;5.33;58.79;100982.36;128051;1288;99461;-76
2022/04/13 06:27:47;;;;;;;41.70;26.20;;;;;;;5.44;58.93;100982.51;128236;1288;99457;-77
2022/04/13 06:30:50;;;;;;;38.00;23.80;;;;;;;5.55;58.61;100983.19;128039;1288;99467;-76
2022/04/13 06:33:52;;;;;;;39.00;24.50;;;;;;;5.67;58.53;100977.78;128026;1288;99480;-76
2022/04/13 06:36:55;;;;;;;32.40;21.30;;;;;;;5.80;58.57;100977.08;128132;1288;99808;-78
2022/04/13 06:39:58;;;;;;;30.00;19.60;;;;;;;5.93;58.47;100980.08;128162;1288;113878;-76
2022/04/13 06:43:00;;;;;;;25.20;17.20;;;;;;;6.06;58.46;100984.17;128287;1288;100041;-76
2022/04/13 06:46:03;;;;;;;34.90;21.80;;;;;;;6.20;58.50;100981.65;128001;1288;99465;-75
2022/04/13 06:49:06;;;;;;;29.10;19.20;;;;;;;6.32;58.50;100976.55;127961;1288;100587;-76
2022/04/13 06:52:09;;;;;;;29.50;19.00;;;;;;;6.47;58.20;100979.92;127989;1288;99371;-76
2022/04/13 06:55:11;;;;;;;30.30;17.80;;;;;;;6.62;58.16;100988.59;128394;1288;100155;-77
2022/04/13 06:58:14;;;;;;;23.80;15.70;;;;;;;6.75;57.96;100987.29;128075;1288;99841;-76
2022/04/13 07:01:17;;;;;;;22.40;14.10;;;;;;;6.87;57.69;100988.17;128110;1288;99398;-77
2022/04/13 07:04:19;;;;;;;19.40;13.80;;;;;;;6.99;57.48;100985.77;128169;1288;99351;-75
2022/04/13 07:07:22;;;;;;;25.70;15.30;;;;;;;7.11;57.43;100981.15;128201;1288;108924;-77
2022/04/13 07:10:27;;;;;;;20.60;12.90;;;;;;;7.25;57.39;100983.66;128189;1288;100534;-77
2022/04/13 07:13:29;;;;;;;17.90;12.70;;;;;;;7.38;57.42;100985.30;128286;1288;108880;-76
2022/04/13 07:16:32;;;;;;;18.50;12.40;;;;;;;7.51;57.20;100989.88;128213;1288;99859;-77
2022/04/13 07:19:35;;;;;;;17.80;12.00;;;;;;;7.64;57.23;100994.02;128024;1288;100565;-77
2022/04/13 07:22:44;;;;;;;20.60;11.90;;;;;;;7.78;56.77;100990.52;128220;1288;99944;-76
2022/04/13 07:25:47;;;;;;;19.00;12.00;;;;;;;7.93;56.71;100994.35;128167;1288;108895;-77
2022/04/13 07:28:50;;;;;;;16.50;11.30;;;;;;;8.04;56.78;100996.48;128264;1288;108893;-77
2022/04/13 07:31:53;;;;;;;17.50;11.30;;;;;;;8.17;56.62;101001.52;128258;1288;109353;-75
2022/04/13 07:34:59;;;;;;;16.80;11.70;;;;;;;8.29;55.75;100997.55;128274;1288;100611;-77
2022/04/13 07:38:01;;;;;;;16.60;11.40;;;;;;;8.42;55.92;100998.29;128334;1288;108720;-75
2022/04/13 07:41:04;;;;;;;17.10;12.00;;;;;;;8.49;55.91;100998.27;128236;1288;99393;-76
2022/04/13 07:44:08;;;;;;;17.20;11.20;;;;;;;8.61;55.98;100998.11;128027;1288;99379;-75
2022/04/13 07:47:10;;;;;;;15.10;9.80;;;;;;;8.72;55.46;100999.02;127991;1288;99351;-74
2022/04/13 07:50:13;;;;;;;19.10;10.80;;;;;;;8.84;55.17;101001.40;128128;1288;100576;-76
2022/04/13 07:53:16;;;;;;;14.70;10.50;;;;;;;8.94;54.63;101002.54;128026;1288;99395;-76
2022/04/13 07:56:19;;;;;;;15.40;9.60;;;;;;;9.03;53.73;100997.94;128036;1288;99798;-77
2022/04/13 07:59:21;;;;;;;13.80;10.00;;;;;;;9.12;52.97;100998.21;128197;1288;100475;-77
2022/04/13 08:02:24;;;;;;;15.70;9.70;;;;;;;9.22;53.71;101000.46;128181;1288;99477;-76
2022/04/13 08:05:27;;;;;;;15.00;9.30;;;;;;;9.31;53.70;100997.94;128309;1288;99962;-78
2022/04/13 08:08:30;;;;;;;12.00;8.30;;;;;;;9.39;53.19;101002.20;128051;1288;99343;-77
2022/04/13 08:11:32;;;;;;;13.10;7.70;;;;;;;9.46;53.21;100995.85;127997;1288;99421;-77
2022/04/13 08:14:35;;;;;;;12.00;8.20;;;;;;;9.54;53.19;100998.30;128025;1288;100634;-76
2022/04/13 08:17:39;;;;;;;11.90;8.10;;;;;;;9.62;52.44;100996.93;128254;1288;99363;-77
2022/04/13 08:20:41;;;;;;;12.00;7.40;;;;;;;9.67;52.19;100996.89;128065;1288;99381;-77
2022/04/13 08:23:44;;;;;;;11.40;7.00;;;;;;;9.72;52.20;100993.82;128134;1288;99353;-77
2022/04/13 08:26:47;;;;;;;12.50;7.80;;;;;;;9.81;52.40;100994.11;128113;1288;99482;-77
2022/04/13 08:29:49;;;;;;;11.50;8.00;;;;;;;9.90;52.21;100993.55;127936;1288;99393;-77
2022/04/13 08:32:52;;;;;;;10.70;6.80;;;;;;;9.96;51.42;100988.42;128095;1288;99407;-76
2022/04/13 08:35:55;;;;;;;12.20;7.90;;;;;;;10.04;51.23;100987.16;128125;1288;99376;-77
2022/04/13 08:38:57;;;;;;;12.20;7.80;;;;;;;10.14;51.03;100987.98;128417;1288;99397;-77
2022/04/13 08:42:09;;;;;;;14.80;8.50;;;;;;;10.17;51.21;100986.95;128163;1288;99907;-77
2022/04/13 08:45:20;;;;;;;13.30;7.50;;;;;;;10.21;51.00;100988.61;127954;1288;99382;-77
2022/04/13 08:48:25;;;;;;;8.90;6.30;;;;;;;10.28;50.80;100978.73;127971;1288;100592;-76
2022/04/13 08:51:28;;;;;;;8.80;5.60;;;;;;;10.34;49.90;100974.51;127975;1288;101553;-76
2022/04/13 08:54:36;;;;;;;11.40;8.10;;;;;;;10.38;49.83;100980.34;128079;1288;102842;-76
2022/04/13 08:57:41;;;;;;;11.20;6.80;;;;;;;10.47;49.91;100977.85;128187;1288;99489;-76
2022/04/13 09:00:54;;;;;;;9.90;6.60;;;;;;;10.51;49.27;100976.05;128181;1288;101718;-76
2022/04/13 09:04:00;;;;;;;9.80;5.60;;;;;;;10.57;48.98;100986.31;128243;1288;99395;-77
2022/04/13 09:07:05;;;;;;;12.70;7.30;;;;;;;10.60;49.00;100982.34;128101;1288;100427;-77
2022/04/13 09:10:13;;;;;;;18.60;10.80;;;;;;;10.64;48.82;100986.30;128160;1288;100544;-77
2022/04/13 09:13:19;;;;;;;9.40;6.40;;;;;;;10.69;48.71;100986.58;128163;1288;100423;-76
2022/04/13 09:16:24;;;;;;;10.70;6.80;;;;;;;10.76;48.80;100982.94;128152;1288;100554;-77
2022/04/13 09:19:27;;;;;;;17.80;9.60;;;;;;;10.82;48.58;100982.40;128124;1288;100425;-77
2022/04/13 09:22:31;;;;;;;11.70;8.10;;;;;;;10.89;48.56;100977.85;128090;1288;99369;-76
2022/04/13 09:25:37;;;;;;;14.90;8.20;;;;;;;10.99;47.91;100976.93;128098;1288;99449;-76
2022/04/13 09:28:39;;;;;;;10.30;6.40;;;;;;;11.07;48.16;100970.15;128006;1288;100294;-76
2022/04/13 09:31:42;;;;;;;8.10;5.70;;;;;;;11.16;45.96;100967.25;128114;1288;99363;-78
2022/04/13 09:34:48;;;;;;;15.30;7.80;;;;;;;11.22;47.71;100962.92;128145;1288;99478;-77
2022/04/13 09:37:51;;;;;;;8.60;5.30;;;;;;;11.30;47.90;100962.25;128179;1288;102316;-77
2022/04/13 09:41:07;;;;;;;12.90;7.40;;;;;;;11.41;47.41;100963.52;128176;1288;100440;-77
2022/04/13 09:44:14;;;;;;;8.50;5.30;;;;;;;11.55;46.54;100969.75;128087;1288;100434;-74
2022/04/13 09:47:16;;;;;;;7.40;5.20;;;;;;;11.65;47.22;100966.00;128181;1288;125110;-76
2022/04/13 09:50:25;;;;;;;11.80;6.60;;;;;;;11.73;46.63;100954.85;128094;1288;99767;-76
2022/04/13 09:53:28;;;;;;;7.50;5.20;;;;;;;11.81;46.96;100945.52;128095;1288;100175;-74
2022/04/13 09:56:30;;;;;;;7.80;4.80;;;;;;;11.98;46.77;100940.58;128018;1288;100341;-76
2022/04/13 09:59:33;;;;;;;8.10;5.20;;;;;;;12.14;46.32;100928.76;128020;1288;99395;-75
2022/04/13 10:02:37;;;;;;;12.90;7.50;;;;;;;12.32;46.62;100917.44;128036;1288;100534;-75
2022/04/13 10:05:43;;;;;;;11.60;6.00;;;;;;;12.52;46.66;100913.53;128154;1288;100275;-76
2022/04/13 10:08:59;;;;;;;11.60;6.30;;;;;;;12.70;46.06;100910.35;128088;1288;99368;-76
2022/04/13 10:12:04;;;;;;;10.50;7.10;;;;;;;12.89;45.69;100910.90;128030;1288;122905;-75
2022/04/13 10:15:10;;;;;;;8.90;6.10;;;;;;;13.06;45.83;100903.04;128037;1288;102244;-76
2022/04/13 10:18:13;;;;;;;9.30;5.90;;;;;;;13.16;45.18;100901.49;128264;1288;99385;-75
2022/04/13 10:21:44;;;;;;;9.80;6.10;;;;;;;13.23;45.36;100902.50;128329;1288;99331;-75
2022/04/13 10:24:52;;;;;;;10.80;7.10;;;;;;;13.29;44.47;100909.63;128429;1288;100190;-76
2022/04/13 10:27:55;;;;;;;10.80;6.80;;;;;;;13.40;45.09;100906.95;128137;1288;99344;-75
2022/04/13 10:31:08;;;;;;;9.00;6.20;;;;;;;13.56;44.95;100903.33;128111;1288;121719;-75
2022/04/13 10:34:12;;;;;;;12.40;7.50;;;;;;;13.80;44.10;100903.81;128126;1288;123568;-74
2022/04/13 10:37:17;;;;;;;11.00;7.40;;;;;;;13.99;44.10;100895.14;128402;1288;100119;-75
2022/04/13 10:40:22;;;;;;;9.80;6.80;;;;;;;14.20;43.94;100882.32;128058;1288;100047;-75
2022/04/13 10:43:27;;;;;;;11.00;7.00;;;;;;;14.36;44.18;100891.30;128096;1288;100285;-74
2022/04/13 10:46:31;;;;;;;11.80;7.60;;;;;;;14.56;43.69;100887.66;128198;1288;99386;-75
2022/04/13 10:49:44;;;;;;;11.90;8.10;;;;;;;14.72;43.38;100885.77;128158;1288;100366;-74
2022/04/13 10:52:56;;;;;;;11.80;7.50;;;;;;;14.80;42.84;100889.14;128195;1288;99461;-75
2022/04/13 10:56:00;;;;;;;9.70;6.60;;;;;;;14.90;43.31;100884.36;128185;1288;100370;-75
2022/04/13 10:59:11;;;;;;;9.00;6.20;;;;;;;15.01;43.36;100885.48;128239;1288;100288;-75
2022/04/13 11:02:27;;;;;;;9.00;6.30;;;;;;;15.10;42.82;100886.30;128220;1288;100554;-74
2022/04/13 11:05:31;;;;;;;8.30;6.00;;;;;;;15.14;42.54;100882.43;128088;1288;100549;-75
2022/04/13 11:08:44;;;;;;;8.40;5.90;;;;;;;15.20;42.17;100884.52;128265;1288;99394;-76
2022/04/13 11:11:49;;;;;;;7.70;5.40;;;;;;;15.26;42.79;100873.26;128156;1288;99456;-75
2022/04/13 11:14:56;;;;;;;7.20;5.40;;;;;;;15.36;42.37;100869.69;128225;1288;100342;-75
2022/04/13 11:18:08;;;;;;;8.30;6.20;;;;;;;15.43;41.98;100857.73;128206;1288;100355;-76
2022/04/13 11:21:10;;;;;;;;;;;;;;;15.50;41.55;100862.34;128390;1288;100576;-75
2022/04/13 11:24:32;;;;;;;7.90;5.80;;;;;;;15.57;41.38;100875.41;128478;1288;99433;-74
2022/04/13 11:27:53;;;;;;;7.10;5.60;;;;;;;15.67;41.77;100878.52;128420;1288;100383;-75
2022/04/13 11:31:04;;;;;;;7.70;5.00;;;;;;;15.79;41.81;100878.16;128374;1288;101235;-74
2022/04/13 11:34:07;;;;;;;7.30;4.80;;;;;;;15.87;41.59;100879.59;128223;1290;100176;-74
2022/04/13 11:37:12;;;;;;;9.70;6.40;;;;;;;15.93;41.18;100878.42;127909;1290;99394;-75
2022/04/13 11:40:21;;;;;;;6.40;4.90;;;;;;;15.91;40.77;100875.94;128000;1290;100158;-75
2022/04/13 11:43:24;;;;;;;8.20;5.80;;;;;;;15.94;41.24;100874.21;127924;1290;100449;-75
2022/04/13 11:46:36;;;;;;;8.80;5.80;;;;;;;15.99;40.85;100872.38;127947;1290;99357;-74
2022/04/13 11:49:55;;;;;;;9.30;6.30;;;;;;;16.07;40.70;100870.95;127829;1290;100675;-74
2022/04/13 11:53:01;;;;;;;10.10;6.50;;;;;;;16.13;40.03;100859.67;127942;1290;99454;-75
2022/04/13 11:56:06;;;;;;;9.90;6.80;;;;;;;16.14;40.05;100859.77;127916;1290;100318;-74
2022/04/13 11:59:15;;;;;;;9.80;6.60;;;;;;;16.15;40.21;100851.70;127938;1290;99794;-75
2022/04/13 12:02:21;;;;;;;10.00;7.10;;;;;;;16.18;39.22;100859.16;127867;1290;100248;-76
2022/04/13 12:05:26;;;;;;;10.20;7.40;;;;;;;16.13;39.53;100858.80;127774;1290;100221;-74
2022/04/13 12:08:30;;;;;;;10.70;7.40;;;;;;;16.09;39.40;100853.23;127993;1289;100561;-75
2022/04/13 12:11:41;;;;;;;10.30;7.70;;;;;;;16.13;39.42;100847.15;127807;1290;100841;-76
2022/04/13 12:14:45;;;;;;;10.50;7.90;;;;;;;16.15;39.61;100843.27;127906;1288;99468;-75
2022/04/13 12:17:48;;;;;;;9.70;7.60;;;;;;;16.16;39.23;100843.35;128051;1288;125235;-75
2022/04/13 12:20:52;;;;;;;10.80;8.00;;;;;;;16.15;39.45;100841.46;128489;1288;99503;-76
2022/04/13 12:23:55;;;;;;;9.40;7.40;;;;;;;16.17;39.67;100841.86;128151;1287;192590;-75
2022/04/13 12:26:58;;;;;;;11.60;8.10;;;;;;;16.21;39.63;100838.23;128345;1288;99475;-75
2022/04/13 12:30:11;;;;;;;11.20;8.60;;;;;;;16.26;39.45;100826.37;128293;1288;99949;-75
2022/04/13 12:33:21;;;;;;;10.60;8.30;;;;;;;16.26;39.18;100824.81;128283;1288;99366;-76
2022/04/13 12:36:24;;;;;;;11.90;8.60;;;;;;;16.27;39.07;100825.71;128502;1288;100133;-75
2022/04/13 12:39:28;;;;;;;8.90;6.80;;;;;;;16.25;38.74;100816.48;128217;1288;99485;-76
2022/04/13 12:42:33;;;;;;;8.70;6.60;;;;;;;16.25;38.73;100820.17;128073;1288;99353;-75
2022/04/13 12:45:36;;;;;;;7.90;6.00;;;;;;;16.24;38.45;100825.80;128265;1288;99361;-75
2022/04/13 12:48:40;;;;;;;8.80;6.30;;;;;;;16.24;38.60;100817.89;128225;1288;100558;-76
2022/04/13 12:51:43;;;;;;;8.20;5.50;;;;;;;16.24;38.50;100812.98;128295;1288;100339;-76
2022/04/13 12:54:45;;;;;;;8.80;5.90;;;;;;;16.24;38.18;100811.70;128107;1288;99527;-76
2022/04/13 12:57:48;;;;;;;7.10;5.00;;;;;;;16.19;37.91;100806.02;128155;1288;99463;-76
2022/04/13 13:00:53;;;;;;;7.70;4.80;;;;;;;16.17;38.12;100804.80;128175;1288;99574;-76
2022/04/13 13:03:57;;;;;;;4.90;4.20;;;;;;;16.21;37.96;100803.67;128296;1288;100433;-75
2022/04/13 13:07:01;;;;;;;6.90;4.50;;;;;;;16.21;37.53;100803.23;128402;1288;100433;-75
2022/04/13 13:10:06;;;;;;;6.10;4.30;;;;;;;16.20;37.60;100804.83;128198;1288;100178;-76
2022/04/13 13:13:17;;;;;;;9.00;6.40;;;;;;;16.22;37.41;100802.99;128253;1288;100554;-75
2022/04/13 13:16:37;;;;;;;5.20;4.10;;;;;;;16.20;37.20;100800.32;128229;1288;100426;-74
2022/04/13 13:19:40;;;;;;;5.00;3.90;;;;;;;16.14;36.54;100795.13;128335;1288;99369;-75
2022/04/13 13:22:46;;;;;;;6.50;4.20;;;;;;;16.11;37.06;100798.01;128179;1288;99444;-77
2022/04/13 13:25:49;;;;;;;7.40;4.40;;;;;;;16.08;36.77;100800.95;128098;1288;99397;-77
2022/04/13 13:28:52;;;;;;;4.60;3.70;;;;;;;16.05;36.82;100799.21;128211;1288;100060;-77
2022/04/13 13:31:54;;;;;;;6.20;4.00;;;;;;;16.03;37.20;100802.69;128143;1288;99466;-77
2022/04/13 13:34:59;;;;;;;5.10;3.90;;;;;;;16.03;36.95;100800.48;128229;1288;100672;-76
2022/04/13 13:38:08;;;;;;;5.20;3.90;;;;;;;16.02;36.58;100793.41;128343;1288;100038;-76
2022/04/13 13:41:11;;;;;;;5.00;3.40;;;;;;;15.94;36.55;100794.15;128315;1288;100570;-77
2022/04/13 13:44:23;;;;;;;6.60;3.70;;;;;;;15.89;36.33;100799.59;128045;1288;100302;-76
2022/04/13 13:47:27;;;;;;;;;;;;;;;15.86;36.48;100801.18;128368;1288;99324;-74
2022/04/13 13:50:31;;;;;;;6.50;4.10;;;;;;;15.85;36.19;100796.84;128210;1288;100576;-74
2022/04/13 13:53:34;;;;;;;5.30;3.80;;;;;;;15.81;36.23;100794.63;128280;1288;100560;-75
2022/04/13 13:56:36;;;;;;;6.90;4.30;;;;;;;15.76;35.96;100791.33;128173;1288;104128;-74